Time;durP1;ratioP1;P1;durP2;ratioP2;P2;SDS_P1;SDS_P2;PMS_P1;PMS_P2;Temp;Humidity;BMP_temperature;BMP_pressure;BME280_temperature;BME280_humidity;BME280_pressure;Samples;Min_cycle;Max_cycle;Signal;HPM_P1;HPM_P2
2021/04/29 00:02:08;;;;;;;;;;;;;;;-142.75;54.60;76767.16;5060636;28;19917;-77
2021/04/29 00:04:34;;;;;;;;;;;;;;;-142.75;55.17;76778.97;5036968;28;19916;-77
2021/04/29 00:06:59;;;;;;;;;;;;;;;-142.75;55.59;76784.88;5060439;28;19924;-78
2021/04/29 00:09:24;;;;;;;;;;;;;;;-142.75;55.95;76775.03;5041101;28;19916;-76
2021/04/29 00:11:50;;;;;;;;;;;;;;;-142.75;56.09;76777.00;5041956;28;19921;-76
2021/04/29 00:14:15;;;;;;;;;;;;;;;-142.75;56.60;76767.16;5063013;28;19970;-78
2021/04/29 00:16:42;;;;;;;;;;;;;;;-142.75;56.11;76769.13;5059069;28;19924;-77
2021/04/29 00:19:08;;;;;;;;;;;;;;;-142.75;56.08;76769.13;5039777;28;19920;-78
2021/04/29 00:21:33;;;;;;;;;;;;;;;-142.75;56.34;76767.16;5065779;28;19921;-77
2021/04/29 00:23:58;;;;;;;;;;;;;;;-142.75;56.12;76759.28;5037544;28;20007;-77
2021/04/29 00:26:23;;;;;;;;;;;;;;;-142.75;57.12;76759.28;5043661;28;20597;-76
2021/04/29 00:28:49;;;;;;;;;;;;;;;-142.75;57.16;76755.34;5040938;28;19959;-77
2021/04/29 00:31:14;;;;;;;;;;;;;;;-142.75;57.19;76761.25;5043623;28;19932;-79
2021/04/29 00:33:39;;;;;;;;;;;;;;;-142.75;57.65;76778.97;5060528;28;20298;-76
2021/04/29 00:36:04;;;;;;;;;;;;;;;-142.75;57.74;76771.09;5039485;28;19923;-76
2021/04/29 00:38:30;;;;;;;;;;;;;;;-142.75;57.17;76769.13;5045498;28;19942;-76
2021/04/29 00:40:56;;;;;;;;;;;;;;;-142.75;57.69;76763.22;5044755;28;20421;-78
2021/04/29 00:43:21;;;;;;;;;;;;;;;-142.75;57.42;76765.19;5041905;28;20382;-77
2021/04/29 00:45:46;;;;;;;;;;;;;;;-142.75;57.59;76771.09;5059908;28;19950;-77
2021/04/29 00:48:12;;;;;;;;;;;;;;;-142.75;57.67;76777.00;5042070;28;19916;-78
2021/04/29 00:50:37;;;;;;;;;;;;;;;-142.75;58.14;76790.78;5043508;28;19955;-77
2021/04/29 00:53:02;;;;;;;;;;;;;;;-142.75;58.67;76782.91;5043504;28;19933;-77
2021/04/29 00:55:27;;;;;;;;;;;;;;;-142.75;58.90;76784.88;5041114;28;20390;-77
2021/04/29 00:57:53;;;;;;;;;;;;;;;-142.75;59.26;76802.56;5047223;28;20027;-78
2021/04/29 01:00:18;;;;;;;;;;;;;;;-142.75;59.56;76806.50;5052732;28;20016;-77
2021/04/29 01:02:49;;;;;;;;;;;;;;;-142.75;58.95;76808.50;5043594;28;19970;-78
2021/04/29 01:05:18;;;;;;;;;;;;;;;-142.75;58.93;76816.34;5038306;28;20058;-77
2021/04/29 01:07:45;;;;;;;;;;;;;;;-142.75;59.17;76826.19;5055259;28;20302;-78
2021/04/29 01:10:13;;;;;;;;;;;;;;;-142.75;59.09;76838.00;5037846;28;20027;-77
2021/04/29 01:12:41;;;;;;;;;;;;;;;-142.75;59.20;76853.75;5066835;28;19920;-76
2021/04/29 01:15:07;;;;;;;;;;;;;;;-142.75;58.63;76859.66;5043692;28;19921;-76
2021/04/29 01:17:35;;;;;;;;;;;;;;;-142.75;58.81;76867.53;5052587;28;20423;-77
2021/04/29 01:20:12;;;;;;;;;;;;;;;-142.75;58.72;76869.50;5053377;28;19917;-76
2021/04/29 01:22:41;;;;;;;;;;;;;;;-142.75;59.15;76877.38;5061151;28;19924;-79
2021/04/29 01:25:12;;;;;;;;;;;;;;;-142.75;58.81;76875.41;5054709;28;19923;-78
2021/04/29 01:27:38;;;;;;;;;;;;;;;-142.75;58.93;76877.38;5056102;28;19917;-74
2021/04/29 01:30:05;;;;;;;;;;;;;;;-142.75;58.68;76881.31;5054344;28;19940;-77
2021/04/29 01:32:30;;;;;;;;;;;;;;;-142.75;59.20;76885.25;5042271;28;19959;-76
2021/04/29 01:34:56;;;;;;;;;;;;;;;-142.75;58.67;76893.13;5044266;28;19948;-76
2021/04/29 01:37:21;;;;;;;;;;;;;;;-142.75;58.35;76877.38;5039245;28;19923;-80
2021/04/29 01:39:47;;;;;;;;;;;;;;;-142.75;58.73;76881.31;5054866;28;19916;-77
2021/04/29 01:42:12;;;;;;;;;;;;;;;-142.75;58.44;76873.44;5063679;28;19924;-77
2021/04/29 01:44:38;;;;;;;;;;;;;;;-142.75;58.14;76877.38;5039614;28;20397;-76
2021/04/29 01:47:03;;;;;;;;;;;;;;;-142.75;58.33;76885.25;5042970;28;20021;-75
2021/04/29 01:49:29;;;;;;;;;;;;;;;-142.75;58.62;76877.38;5039253;28;20369;-76
2021/04/29 01:51:55;;;;;;;;;;;;;;;-142.75;59.13;76879.34;5039485;28;20015;-77
2021/04/29 01:54:21;;;;;;;;;;;;;;;-142.75;59.16;76883.28;5035039;28;19917;-78
2021/04/29 01:56:46;;;;;;;;;;;;;;;-142.75;59.76;76883.28;5055937;28;19916;-77
2021/04/29 01:59:12;;;;;;;;;;;;;;;-142.75;59.82;76889.19;5047716;28;20454;-77
2021/04/29 02:01:38;;;;;;;;;;;;;;;-142.75;60.10;76889.19;5059593;28;20370;-77
2021/04/29 02:04:03;;;;;;;;;;;;;;;-142.75;59.70;76893.13;5050718;28;19931;-80
2021/04/29 02:06:28;;;;;;;;;;;;;;;-142.75;60.36;76918.72;5057874;28;20371;-76
2021/04/29 02:08:54;;;;;;;;;;;;;;;-142.75;60.30;76914.78;5058331;28;19920;-77
2021/04/29 02:11:19;;;;;;;;;;;;;;;-142.75;60.21;76932.50;5063031;28;20000;-76
2021/04/29 02:13:46;;;;;;;;;;;;;;;-142.75;60.47;76952.19;5046537;28;19917;-77
2021/04/29 02:16:14;;;;;;;;;;;;;;;-142.75;60.80;76956.13;5049214;28;19917;-77
2021/04/29 02:18:44;;;;;;;;;;;;;;;-142.75;60.57;76944.31;5046370;28;19924;-77
2021/04/29 02:21:11;;;;;;;;;;;;;;;-142.75;60.77;76944.31;5060156;28;20008;-76
2021/04/29 02:23:37;;;;;;;;;;;;;;;-142.75;60.86;76940.38;5073703;28;19916;-78
2021/04/29 02:26:02;;;;;;;;;;;;;;;-142.75;61.19;76936.44;5064766;28;20866;-77
2021/04/29 02:28:29;;;;;;;;;;;;;;;-142.75;61.21;76940.38;5057213;28;19974;-75
2021/04/29 02:30:54;;;;;;;;;;;;;;;-142.75;62.14;76946.28;5041377;28;19916;-77
2021/04/29 02:33:20;;;;;;;;;;;;;;;-142.75;62.45;76958.09;5040779;28;20401;-76
2021/04/29 02:35:46;;;;;;;;;;;;;;;-142.75;63.36;76981.72;5052807;28;19916;-77
2021/04/29 02:38:16;;;;;;;;;;;;;;;-142.75;64.16;76979.75;5065806;28;19974;-78
2021/04/29 02:40:41;;;;;;;;;;;;;;;-142.75;65.10;76983.69;5044942;28;20355;-77
2021/04/29 02:43:10;;;;;;;;;;;;;;;-142.75;65.35;76989.59;5047776;28;19916;-78
2021/04/29 02:45:35;;;;;;;;;;;;;;;-142.75;65.99;76989.59;5062439;28;19917;-77
2021/04/29 02:48:00;;;;;;;;;;;;;;;-142.75;66.49;76993.53;5065794;28;20450;-79
2021/04/29 02:50:25;;;;;;;;;;;;;;;-142.75;66.69;76991.56;5066104;28;19916;-78
2021/04/29 02:52:52;;;;;;;;;;;;;;;-142.75;66.70;76995.50;5062504;28;19978;-78
2021/04/29 02:55:18;;;;;;;;;;;;;;;-142.75;67.24;76997.47;5041861;28;19917;-77
2021/04/29 02:57:43;;;;;;;;;;;;;;;-142.75;67.57;76995.50;5063678;28;19916;-77
2021/04/29 03:00:11;;;;;;;;;;;;;;;-142.75;67.83;76997.47;5044024;28;20390;-78
2021/04/29 03:02:38;;;;;;;;;;;;;;;-142.75;68.08;76987.63;5045622;28;20397;-77
2021/04/29 03:05:04;;;;;;;;;;;;;;;-142.75;67.98;76973.84;5063148;28;19925;-77
2021/04/29 03:07:29;;;;;;;;;;;;;;;-142.75;68.08;76977.78;5042440;28;19923;-78
2021/04/29 03:09:55;;;;;;;;;;;;;;;-142.75;68.43;76960.06;5062083;28;19916;-77
2021/04/29 03:12:20;;;;;;;;;;;;;;;-142.75;68.44;76960.06;5058611;28;19924;-76
2021/04/29 03:14:45;;;;;;;;;;;;;;;-142.75;68.50;76956.13;5060420;28;19968;-77
2021/04/29 03:17:10;;;;;;;;;;;;;;;-142.75;68.35;76944.31;5046022;28;19951;-77
2021/04/29 03:19:35;;;;;;;;;;;;;;;-142.75;68.37;76948.25;5042601;28;19917;-75
2021/04/29 03:22:01;;;;;;;;;;;;;;;-142.75;68.55;76940.38;5060190;28;19917;-76
2021/04/29 03:24:26;;;;;;;;;;;;;;;-142.75;68.52;76940.38;5055462;28;20016;-77
2021/04/29 03:26:51;;;;;;;;;;;;;;;-142.75;68.66;76940.38;5065629;28;19916;-76
2021/04/29 03:29:16;;;;;;;;;;;;;;;-142.75;68.50;76944.31;5061105;28;19917;-76
2021/04/29 03:31:41;;;;;;;;;;;;;;;-142.75;68.49;76934.47;5064119;28;19924;-76
2021/04/29 03:34:07;;;;;;;;;;;;;;;-142.75;68.52;76932.50;5044509;28;19925;-76
2021/04/29 03:36:32;;;;;;;;;;;;;;;-142.75;68.77;76936.44;5062764;28;19959;-75
2021/04/29 03:38:57;;;;;;;;;;;;;;;-142.75;68.95;76946.28;5040087;28;20054;-74
2021/04/29 03:41:22;;;;;;;;;;;;;;;-142.75;68.92;76940.38;5049736;28;19916;-75
2021/04/29 03:43:48;;;;;;;;;;;;;;;-142.75;69.05;76940.38;5063539;28;19916;-76
2021/04/29 03:46:13;;;;;;;;;;;;;;;-142.75;69.07;76942.34;5040295;28;20507;-76
2021/04/29 03:48:38;;;;;;;;;;;;;;;-142.75;69.18;76934.47;5058753;28;19920;-77
2021/04/29 03:51:03;;;;;;;;;;;;;;;-142.75;69.36;76934.47;5064009;28;19966;-77
2021/04/29 03:53:29;;;;;;;;;;;;;;;-142.75;69.28;76942.34;5043984;28;19966;-76
2021/04/29 03:55:54;;;;;;;;;;;;;;;-142.75;69.19;76932.50;5041365;28;19916;-77
2021/04/29 03:58:19;;;;;;;;;;;;;;;-142.75;69.30;76940.38;5059063;28;19940;-78
2021/04/29 04:00:44;;;;;;;;;;;;;;;-142.75;69.21;76950.22;5060438;28;19917;-77
2021/04/29 04:03:10;;;;;;;;;;;;;;;-142.75;69.30;76944.31;5051899;28;19924;-76
2021/04/29 04:05:35;;;;;;;;;;;;;;;-142.75;69.62;76946.28;5043690;28;19916;-78
2021/04/29 04:08:00;;;;;;;;;;;;;;;-142.75;69.19;76944.31;5042143;28;20407;-74
2021/04/29 04:10:25;;;;;;;;;;;;;;;-142.75;69.21;76952.19;5037835;28;19917;-75
2021/04/29 04:12:51;;;;;;;;;;;;;;;-142.75;68.92;76952.19;5067648;22;19929;-76
2021/04/29 04:15:16;;;;;;;;;;;;;;;-142.75;68.89;76958.09;5027834;28;19921;-77
2021/04/29 04:17:41;;;;;;;;;;;;;;;-142.75;68.69;76952.19;5030982;28;19939;-77
2021/04/29 04:20:06;;;;;;;;;;;;;;;-142.75;68.73;76956.13;5034972;28;19917;-77
2021/04/29 04:22:32;;;;;;;;;;;;;;;-142.75;68.53;76950.22;5031967;28;19917;-75
2021/04/29 04:24:57;;;;;;;;;;;;;;;-142.75;68.50;76954.16;5032121;28;20058;-76
2021/04/29 04:27:22;;;;;;;;;;;;;;;-142.75;68.17;76960.06;5037262;28;19917;-78
2021/04/29 04:29:47;;;;;;;;;;;;;;;-142.75;68.46;76958.09;5031985;28;19990;-76
2021/04/29 04:32:13;;;;;;;;;;;;;;;-142.75;67.95;76962.03;5047073;28;19928;-77
2021/04/29 04:34:39;;;;;;;;;;;;;;;-142.75;68.06;76954.16;5045198;28;19917;-76
2021/04/29 04:37:04;;;;;;;;;;;;;;;-142.75;67.78;76958.09;5032991;28;20302;-75
2021/04/29 04:39:29;;;;;;;;;;;;;;;-142.75;68.24;76960.06;5030220;28;19917;-74
2021/04/29 04:41:54;;;;;;;;;;;;;;;-142.75;67.88;76956.13;5031943;28;19979;-75
2021/04/29 04:44:19;;;;;;;;;;;;;;;-142.75;67.77;76967.94;5033078;28;19921;-77
2021/04/29 04:46:44;;;;;;;;;;;;;;;-142.75;67.79;76967.94;5050218;28;19923;-77
2021/04/29 04:49:10;;;;;;;;;;;;;;;-142.75;67.81;76979.75;5030187;28;20001;-76
2021/04/29 04:51:35;;;;;;;;;;;;;;;-142.75;67.90;76965.97;5031132;28;20422;-76
2021/04/29 04:54:03;;;;;;;;;;;;;;;-142.75;67.69;76967.94;5039343;28;19928;-78
2021/04/29 04:56:28;;;;;;;;;;;;;;;-142.75;67.32;76973.84;5038870;28;19925;-76
2021/04/29 04:58:54;;;;;;;;;;;;;;;-142.75;67.51;76965.97;5041261;28;19924;-79
2021/04/29 05:01:19;;;;;;;;;;;;;;;-142.75;67.41;76975.81;5040157;28;19917;-75
2021/04/29 05:03:45;;;;;;;;;;;;;;;-142.75;67.56;76973.84;5030564;28;19924;-78
2021/04/29 05:06:10;;;;;;;;;;;;;;;-142.75;67.41;76971.88;5044400;28;20283;-76
2021/04/29 05:08:35;;;;;;;;;;;;;;;-142.75;67.38;76979.75;5038299;28;20432;-77
2021/04/29 05:11:00;;;;;;;;;;;;;;;-142.75;67.63;76987.63;5031926;28;19917;-76
2021/04/29 05:13:25;;;;;;;;;;;;;;;-142.75;67.82;76975.81;5027850;28;19944;-77
2021/04/29 05:15:51;;;;;;;;;;;;;;;-142.75;67.85;76975.81;5039010;28;19917;-76
2021/04/29 05:18:16;;;;;;;;;;;;;;;-142.75;67.78;76971.88;5028450;28;20000;-75
2021/04/29 05:20:41;;;;;;;;;;;;;;;-142.75;68.00;76967.94;5028858;28;19917;-75
2021/04/29 05:23:06;;;;;;;;;;;;;;;-142.75;67.73;76971.88;5034837;28;20374;-77
2021/04/29 05:25:31;;;;;;;;;;;;;;;-142.75;67.68;76962.03;5042181;28;19962;-76
2021/04/29 05:28:01;;;;;;;;;;;;;;;-142.75;68.00;76962.03;5031120;28;19943;-74
2021/04/29 05:30:26;;;;;;;;;;;;;;;-142.75;67.80;76962.03;5044432;28;19917;-77
2021/04/29 05:32:51;;;;;;;;;;;;;;;-142.75;67.90;76967.94;5047023;28;19921;-76
2021/04/29 05:35:17;;;;;;;;;;;;;;;-142.75;67.95;76962.03;5043340;28;20473;-76
2021/04/29 05:37:42;;;;;;;;;;;;;;;-142.75;67.84;76962.03;5035013;28;20325;-79
2021/04/29 05:40:08;;;;;;;;;;;;;;;-142.75;67.82;76960.06;5032366;28;19994;-77
2021/04/29 05:42:33;;;;;;;;;;;;;;;-142.75;67.78;76962.03;5035177;28;19916;-75
2021/04/29 05:44:58;;;;;;;;;;;;;;;-142.75;67.47;76952.19;5045405;28;19917;-76
2021/04/29 05:47:24;;;;;;;;;;;;;;;-142.75;67.46;76956.13;5049163;28;19917;-77
2021/04/29 05:49:49;;;;;;;;;;;;;;;-142.75;67.47;76952.19;5036574;28;19923;-77
2021/04/29 05:52:14;;;;;;;;;;;;;;;-142.75;67.55;76944.31;5036082;28;19948;-78
2021/04/29 05:54:39;;;;;;;;;;;;;;;-142.75;67.53;76940.38;5032270;28;19963;-77
2021/04/29 05:57:05;;;;;;;;;;;;;;;-142.75;67.66;76940.38;5042627;28;20016;-77
2021/04/29 05:59:30;;;;;;;;;;;;;;;-142.75;67.39;76952.19;5035529;28;20039;-76
2021/04/29 06:01:56;;;;;;;;;;;;;;;-142.75;66.76;76950.22;5047224;28;19917;-77
2021/04/29 06:04:21;;;;;;;;;;;;;;;-142.75;66.84;76960.06;5048789;28;20445;-77
2021/04/29 06:06:47;;;;;;;;;;;;;;;-142.75;66.55;76956.13;5044396;28;19971;-76
2021/04/29 06:09:13;;;;;;;;;;;;;;;-142.75;66.64;76960.06;5045369;28;19925;-75
2021/04/29 06:11:38;;;;;;;;;;;;;;;-142.75;66.30;76960.06;5053441;28;20392;-76
2021/04/29 06:14:03;;;;;;;;;;;;;;;-142.75;65.90;76977.78;5051929;28;19921;-76
2021/04/29 06:16:28;;;;;;;;;;;;;;;-142.75;66.02;76967.94;5042447;28;19917;-75
2021/04/29 06:18:54;;;;;;;;;;;;;;;-142.75;65.83;76983.69;5035295;28;19924;-77
2021/04/29 06:21:19;;;;;;;;;;;;;;;-142.75;65.80;76971.88;5031468;28;19924;-75
2021/04/29 06:23:44;;;;;;;;;;;;;;;-142.75;65.11;76973.84;5033124;28;19948;-77
2021/04/29 06:26:09;;;;;;;;;;;;;;;-142.75;65.58;76983.69;5034226;28;19955;-77
2021/04/29 06:28:35;;;;;;;;;;;;;;;-142.75;64.78;76981.72;5036557;28;20398;-78
2021/04/29 06:31:00;;;;;;;;;;;;;;;-142.75;64.75;76993.53;5039255;28;20656;-78
2021/04/29 06:33:25;;;;;;;;;;;;;;;-142.75;64.25;77011.25;5033363;28;19924;-78
2021/04/29 06:35:51;;;;;;;;;;;;;;;-142.75;64.72;77007.31;5039126;28;20661;-78
2021/04/29 06:38:16;;;;;;;;;;;;;;;-142.75;64.41;77017.16;5038624;28;19917;-79
2021/04/29 06:40:41;;;;;;;;;;;;;;;-142.75;64.55;77021.09;5035557;28;19916;-76
2021/04/29 06:43:07;;;;;;;;;;;;;;;-142.75;64.10;77034.88;5052541;28;19978;-77
2021/04/29 06:45:32;;;;;;;;;;;;;;;-142.75;63.16;77038.81;5036232;28;19928;-77
2021/04/29 06:47:57;;;;;;;;;;;;;;;-142.75;63.90;77030.94;5040106;28;19921;-76
2021/04/29 06:50:22;;;;;;;;;;;;;;;-142.75;63.70;77050.63;5031479;28;19917;-76
2021/04/29 06:52:47;;;;;;;;;;;;;;;-142.75;63.48;77052.59;5030361;28;20302;-75
2021/04/29 06:55:13;;;;;;;;;;;;;;;-142.75;63.61;77058.50;5037059;28;19957;-77
2021/04/29 06:57:38;;;;;;;;;;;;;;;-142.75;63.65;77060.47;5034008;28;19925;-76
2021/04/29 07:00:04;;;;;;;;;;;;;;;-142.75;63.67;77060.47;5032910;28;19940;-79
2021/04/29 07:02:29;;;;;;;;;;;;;;;-142.75;63.31;77062.44;5043890;28;19931;-76
2021/04/29 07:04:54;;;;;;;;;;;;;;;-142.75;63.59;77060.47;5033507;28;20388;-77
2021/04/29 07:07:19;;;;;;;;;;;;;;;-142.75;63.63;77062.44;5031889;28;19988;-76
2021/04/29 07:09:44;;;;;;;;;;;;;;;-142.75;63.36;77068.34;5049586;28;19924;-74
2021/04/29 07:12:10;;;;;;;;;;;;;;;-142.75;63.33;77066.38;5031974;28;19959;-77
2021/04/29 07:14:35;;;;;;;;;;;;;;;-142.75;63.76;77070.31;5029567;28;20428;-78
2021/04/29 07:17:00;;;;;;;;;;;;;;;-142.75;63.20;77078.19;5029712;28;19917;-76
2021/04/29 07:19:25;;;;;;;;;;;;;;;-142.75;63.32;77064.41;5034046;28;19947;-76
2021/04/29 07:21:50;;;;;;;;;;;;;;;-142.75;63.66;77064.41;5033269;28;19917;-78
2021/04/29 07:24:16;;;;;;;;;;;;;;;-142.75;62.85;77058.50;5046541;28;19928;-77
2021/04/29 07:26:41;;;;;;;;;;;;;;;-142.75;63.16;77076.22;5027296;28;19952;-77
2021/04/29 07:29:06;;;;;;;;;;;;;;;-142.75;63.64;77076.22;5049061;28;19917;-78
2021/04/29 07:31:31;;;;;;;;;;;;;;;-142.75;63.13;77070.31;5030010;28;19929;-77
2021/04/29 07:33:57;;;;;;;;;;;;;;;-142.75;63.28;77076.22;5035947;28;20298;-80
2021/04/29 07:36:22;;;;;;;;;;;;;;;-142.75;63.41;77076.22;5037473;28;20012;-77
2021/04/29 07:38:47;;;;;;;;;;;;;;;-142.75;63.42;77072.28;5033739;28;19923;-78
2021/04/29 07:41:12;;;;;;;;;;;;;;;-142.75;63.36;77074.25;5033169;28;19975;-77
2021/04/29 07:43:38;;;;;;;;;;;;;;;-142.75;63.39;77074.25;5035309;28;19917;-79
2021/04/29 07:46:03;;;;;;;;;;;;;;;-142.75;63.23;77078.19;5040925;28;20359;-77
2021/04/29 07:48:28;;;;;;;;;;;;;;;-142.75;63.46;77082.13;5030824;28;19917;-79
2021/04/29 07:50:54;;;;;;;;;;;;;;;-142.75;63.07;77074.25;5032639;28;19917;-77
2021/04/29 07:53:19;;;;;;;;;;;;;;;-142.75;63.29;77078.19;5031064;28;19929;-76
2021/04/29 07:55:44;;;;;;;;;;;;;;;-142.75;63.02;77082.13;5040856;28;19923;-79
2021/04/29 07:58:10;;;;;;;;;;;;;;;-142.75;62.69;77084.09;5032517;28;19931;-79
2021/04/29 08:00:35;;;;;;;;;;;;;;;-142.75;62.43;77090.00;5039471;28;19917;-82
2021/04/29 08:03:00;;;;;;;;;;;;;;;-142.75;62.81;77090.00;5030360;28;19975;-77
2021/04/29 08:05:26;;;;;;;;;;;;;;;-142.75;62.34;77091.97;5035237;28;19921;-77
2021/04/29 08:07:51;;;;;;;;;;;;;;;-142.75;62.35;77107.72;5043103;28;20272;-77
2021/04/29 08:10:16;;;;;;;;;;;;;;;-142.75;62.41;77117.56;5032554;28;19932;-78
2021/04/29 08:12:42;;;;;;;;;;;;;;;-142.75;62.27;77127.41;5032847;28;20055;-78
2021/04/29 08:15:07;;;;;;;;;;;;;;;-142.75;62.10;77139.22;5049337;28;20436;-77
2021/04/29 08:17:33;;;;;;;;;;;;;;;-142.75;62.22;77141.19;5045997;28;19948;-77
2021/04/29 08:19:58;;;;;;;;;;;;;;;-142.75;62.61;77143.16;5036740;28;19917;-78
2021/04/29 08:22:24;;;;;;;;;;;;;;;-142.75;61.97;77151.03;5037417;28;19921;-77
2021/04/29 08:24:50;;;;;;;;;;;;;;;-142.75;62.04;77162.84;5040698;28;19959;-80
2021/04/29 08:27:15;;;;;;;;;;;;;;;-142.75;61.92;77153.00;5037820;28;19952;-77
2021/04/29 08:29:40;;;;;;;;;;;;;;;-142.75;62.17;77164.81;5038457;28;19921;-79
2021/04/29 08:32:06;;;;;;;;;;;;;;;-142.75;62.26;77178.59;5028181;28;19956;-76
2021/04/29 08:34:31;;;;;;;;;;;;;;;-142.75;62.43;77184.50;5035504;28;19920;-77
2021/04/29 08:36:56;;;;;;;;;;;;;;;-142.75;62.82;77186.47;5029502;28;19917;-76
2021/04/29 08:39:21;;;;;;;;;;;;;;;-142.75;62.65;77176.63;5033285;28;20418;-78
2021/04/29 08:41:46;;;;;;;;;;;;;;;-142.75;63.33;77174.66;5042852;28;19942;-80
2021/04/29 08:44:12;;;;;;;;;;;;;;;-142.75;63.39;77180.56;5039967;28;20051;-76
2021/04/29 08:46:37;;;;;;;;;;;;;;;-142.75;63.74;77192.38;5035900;28;19939;-77
2021/04/29 08:49:02;;;;;;;;;;;;;;;-142.75;63.90;77204.19;5028789;28;19925;-77
2021/04/29 08:51:28;;;;;;;;;;;;;;;-142.75;64.17;77204.19;5031996;28;19924;-77
2021/04/29 08:53:54;;;;;;;;;;;;;;;-142.75;63.61;77216.00;5038627;28;20011;-77
2021/04/29 08:56:23;;;;;;;;;;;;;;;-142.75;63.39;77223.88;5030015;28;20446;-77
2021/04/29 08:58:55;;;;;;;;;;;;;;;-142.75;64.17;77231.75;5045466;28;19921;-79
2021/04/29 09:01:20;;;;;;;;;;;;;;;-142.75;64.81;77233.72;5031756;28;19979;-77
2021/04/29 09:03:46;;;;;;;;;;;;;;;-142.75;64.81;77229.78;5030072;28;19917;-78
2021/04/29 09:06:11;;;;;;;;;;;;;;;-142.75;64.78;77229.78;5037514;28;20413;-78
2021/04/29 09:08:37;;;;;;;;;;;;;;;-142.75;65.46;77229.78;5027276;28;19924;-79
2021/04/29 09:11:16;;;;;;;;;;;;;;;-142.75;65.21;77243.56;5030459;28;19917;-78
2021/04/29 09:14:02;;;;;;;;;;;;;;;-142.75;65.77;77241.59;5043635;28;19928;-78
2021/04/29 09:16:56;;;;;;;;;;;;;;;-142.75;65.58;77245.53;5027345;28;19923;-78
2021/04/29 09:19:23;;;;;;;;;;;;;;;-142.75;65.21;77277.03;5030592;28;19972;-77
2021/04/29 09:21:48;;;;;;;;;;;;;;;-142.75;65.13;77271.13;5040105;28;19925;-78
2021/04/29 09:24:13;;;;;;;;;;;;;;;-142.75;65.90;77280.97;5036772;28;19983;-76
2021/04/29 09:26:39;;;;;;;;;;;;;;;-142.75;65.52;77286.88;5044637;28;19990;-77
2021/04/29 09:29:13;;;;;;;;;;;;;;;-142.75;65.50;77290.81;5045980;28;20456;-79
2021/04/29 09:31:42;;;;;;;;;;;;;;;-142.75;65.99;77296.72;5030374;28;19927;-78
2021/04/29 09:34:08;;;;;;;;;;;;;;;-142.75;66.18;77304.59;5030695;28;19921;-78
2021/04/29 09:36:43;;;;;;;;;;;;;;;-142.75;66.31;77304.59;5028833;28;19965;-79
2021/04/29 09:39:08;;;;;;;;;;;;;;;-142.75;66.48;77316.41;5042081;28;19917;-81
2021/04/29 09:41:35;;;;;;;;;;;;;;;-142.75;66.75;77326.25;5029486;28;19983;-76
2021/04/29 09:44:08;;;;;;;;;;;;;;;-142.75;67.35;77338.06;5029206;28;19921;-75
2021/04/29 09:46:53;;;;;;;;;;;;;;;-142.75;67.45;77343.97;5041750;28;19956;-77
2021/04/29 09:49:18;;;;;;;;;;;;;;;-142.75;67.04;77349.88;5028069;28;20276;-78
2021/04/29 09:51:43;;;;;;;;;;;;;;;-142.75;67.17;77361.69;5040308;28;19924;-76
2021/04/29 09:54:09;;;;;;;;;;;;;;;-142.75;67.08;77359.72;5043516;28;19924;-76
2021/04/29 09:56:34;;;;;;;;;;;;;;;-142.75;66.95;77367.59;5032429;28;19917;-80
2021/04/29 09:59:00;;;;;;;;;;;;;;;-142.75;67.31;77357.75;5037138;28;19921;-78
2021/04/29 10:01:28;;;;;;;;;;;;;;;-142.75;67.35;77355.78;5041722;28;19917;-78
2021/04/29 10:03:57;;;;;;;;;;;;;;;-142.75;67.17;77361.69;5029765;28;19940;-77
2021/04/29 10:06:22;;;;;;;;;;;;;;;-142.75;67.47;77363.66;5032024;28;19925;-78
2021/04/29 10:08:49;;;;;;;;;;;;;;;-142.75;67.13;77373.50;5044727;28;19983;-80
2021/04/29 10:11:15;;;;;;;;;;;;;;;-142.75;67.75;77375.47;5030431;28;19916;-76
2021/04/29 10:13:45;;;;;;;;;;;;;;;-142.75;67.61;77381.38;5029301;28;19931;-79
2021/04/29 10:16:10;;;;;;;;;;;;;;;-142.75;67.77;77385.31;5034683;28;19925;-77
2021/04/29 10:18:38;;;;;;;;;;;;;;;-142.75;68.01;77385.31;5035518;28;19995;-79
2021/04/29 10:21:04;;;;;;;;;;;;;;;-142.75;68.17;77399.09;5034294;28;20393;-79
2021/04/29 10:23:29;;;;;;;;;;;;;;;-142.75;68.57;77397.13;5044763;28;19952;-78
2021/04/29 10:25:56;;;;;;;;;;;;;;;-142.75;68.26;77403.03;5035881;28;19917;-78
2021/04/29 10:28:32;;;;;;;;;;;;;;;-142.75;68.31;77393.19;5038678;28;19917;-78
2021/04/29 10:30:58;;;;;;;;;;;;;;;-142.75;68.27;77393.19;5035634;28;19924;-79
2021/04/29 10:33:23;;;;;;;;;;;;;;;-142.75;68.21;77389.25;5042574;28;19932;-78
2021/04/29 10:35:51;;;;;;;;;;;;;;;-142.75;67.95;77381.38;5043794;28;19923;-79
2021/04/29 10:38:24;;;;;;;;;;;;;;;-142.75;68.06;77381.38;5035894;28;19939;-78
2021/04/29 10:40:49;;;;;;;;;;;;;;;-142.75;68.20;77385.31;5032887;28;19921;-80
2021/04/29 10:43:14;;;;;;;;;;;;;;;-142.75;68.52;77381.38;5035719;28;20387;-78
2021/04/29 10:45:50;;;;;;;;;;;;;;;-142.75;68.18;77385.31;5048799;28;19920;-79
2021/04/29 10:48:15;;;;;;;;;;;;;;;-142.75;67.87;77385.31;5043492;28;19917;-78
2021/04/29 10:50:42;;;;;;;;;;;;;;;-142.75;68.05;77379.41;5040359;28;19940;-79
2021/04/29 10:53:07;;;;;;;;;;;;;;;-142.75;68.13;77373.50;5041146;28;19921;-78
2021/04/29 10:55:34;;;;;;;;;;;;;;;-142.75;67.72;77369.56;5041456;28;19986;-78
2021/04/29 10:58:03;;;;;;;;;;;;;;;-142.75;67.40;77373.50;5031831;28;19971;-77
2021/04/29 11:00:29;;;;;;;;;;;;;;;-142.75;67.44;77383.34;5034013;28;19917;-81
2021/04/29 11:02:59;;;;;;;;;;;;;;;-142.75;67.89;77371.53;5032980;28;20298;-78
2021/04/29 11:05:25;;;;;;;;;;;;;;;-142.75;67.75;77371.53;5031916;28;19932;-80
2021/04/29 11:07:50;;;;;;;;;;;;;;;-142.75;67.85;77365.63;5032886;28;19966;-79
2021/04/29 11:10:17;;;;;;;;;;;;;;;-142.75;67.69;77361.69;5041099;28;20389;-77
2021/04/29 11:12:52;;;;;;;;;;;;;;;-142.75;67.42;77365.63;5042530;28;20418;-75
2021/04/29 11:15:25;;;;;;;;;;;;;;;-142.75;68.00;77353.81;5042238;28;19970;-77
2021/04/29 11:17:59;;;;;;;;;;;;;;;-142.75;67.74;77363.66;5041563;28;19927;-76
2021/04/29 11:20:24;;;;;;;;;;;;;;;-142.75;67.85;77355.78;5042104;28;19978;-79
2021/04/29 11:22:53;;;;;;;;;;;;;;;-142.75;67.61;77343.97;5041647;28;19921;-78
2021/04/29 11:25:18;;;;;;;;;;;;;;;-142.75;67.68;77334.13;5036497;28;19928;-75
2021/04/29 11:27:44;;;;;;;;;;;;;;;-142.75;67.60;77326.25;5040087;28;19917;-74
2021/04/29 11:30:12;;;;;;;;;;;;;;;-142.75;67.53;77334.13;5031803;28;19917;-74
2021/04/29 11:32:38;;;;;;;;;;;;;;;-142.75;67.27;77316.41;5035275;28;19987;-76
2021/04/29 11:35:18;;;;;;;;;;;;;;;-142.75;67.32;77318.38;5041732;28;20406;-77
2021/04/29 11:37:44;;;;;;;;;;;;;;;-142.75;66.66;77326.25;5030802;28;19920;-77
2021/04/29 11:40:10;;;;;;;;;;;;;;;-142.75;67.01;77324.28;5030378;28;19918;-79
2021/04/29 11:42:35;;;;;;;;;;;;;;;-142.75;67.05;77318.38;5030292;28;19923;-78
2021/04/29 11:45:08;;;;;;;;;;;;;;;-142.75;66.93;77318.38;5030345;28;19931;-76
2021/04/29 11:47:33;;;;;;;;;;;;;;;-142.75;66.21;77338.06;5036569;28;19917;-77
2021/04/29 11:49:58;;;;;;;;;;;;;;;-142.75;65.76;77338.06;5030058;28;19924;-79
2021/04/29 11:52:24;;;;;;;;;;;;;;;-142.75;65.36;77353.81;5031486;28;19924;-78
2021/04/29 11:54:50;;;;;;;;;;;;;;;-142.75;65.42;77353.81;5036051;28;19916;-76
2021/04/29 11:57:15;;;;;;;;;;;;;;;-142.75;65.17;77369.56;5047151;28;19982;-75
2021/04/29 11:59:41;;;;;;;;;;;;;;;-142.75;64.36;77365.63;5028230;28;20343;-78
2021/04/29 12:02:06;;;;;;;;;;;;;;;-142.75;64.23;77377.44;5030812;28;19917;-76
2021/04/29 12:04:31;;;;;;;;;;;;;;;-142.75;64.11;77373.50;5030322;28;20008;-76
2021/04/29 12:07:00;;;;;;;;;;;;;;;-142.75;63.29;77371.53;5040770;28;20019;-77
2021/04/29 12:09:26;;;;;;;;;;;;;;;-142.75;63.26;77371.53;5043656;28;20003;-77
2021/04/29 12:11:52;;;;;;;;;;;;;;;-142.75;63.26;77365.63;5027313;28;20012;-77
2021/04/29 12:14:24;;;;;;;;;;;;;;;-142.75;62.79;77363.66;5037862;28;19996;-78
2021/04/29 12:16:51;;;;;;;;;;;;;;;-142.75;62.48;77373.50;5027997;28;19924;-77
2021/04/29 12:19:23;;;;;;;;;;;;;;;-142.75;62.54;77381.38;5041291;28;19999;-76
2021/04/29 12:21:49;;;;;;;;;;;;;;;-142.75;63.22;77381.38;5030227;28;19916;-77
2021/04/29 12:24:14;;;;;;;;;;;;;;;-142.75;62.52;77369.56;5040834;28;20389;-77